ADDS METAR Data INFO
IDs: Format: Raw Decoded Include TAF

Data at: 1133 UTC 29 May 2017

KTPL 291051Z AUTO 33006KT 5SM BR CLR 20/20 A2997 RMK AO2 SLP155 T02000200 TSNO
KTPL 291015Z AUTO 27003KT 9SM FEW006 21/20 A2998 RMK AO2
KTPL 291007Z AUTO 21003KT 9SM FEW026 21/20 A2998 RMK AO2
KTPL 290951Z AUTO 19003KT 10SM FEW005 SCT016 BKN027 21/21 A2998 RMK AO2 SLP158 T02060206
KTPL 290942Z AUTO 23003KT 10SM SCT003 BKN016 OVC024 21/21 A2998 RMK AO2
KTPL 290851Z AUTO 10005KT 9SM OVC003 21/21 A2998 RMK AO2 CIG 003V008 SLP155 60001 T02110206 53004
KTPL 290838Z AUTO 09005KT 8SM OVC003 21/21 A2997 RMK AO2
KTPL 290801Z AUTO 02005KT 10SM OVC005 21/21 A2997 RMK AO2 CIG 002V007
KTPL 290751Z AUTO 05004KT 9SM BKN003 20/20 A2997 RMK AO2 CIG 002V006 SLP151 T02000200
KTPL 290748Z AUTO 02004KT 8SM BKN003 21/20 A2996 RMK AO2
KTPL 290739Z AUTO 11007KT 8SM SCT003 21/20 A2998 RMK AO2
KTPL 290651Z AUTO 35005KT 10SM CLR 19/19 A2997 RMK AO2 SLP151 P0001 T01940189
KTPL 290551Z AUTO 33005KT 10SM CLR 20/19 A2999 RMK AO2 SLP158 60077 T02000194 10244 20194 403220194 55006
KTPL 290451Z AUTO 04009KT 10SM CLR 20/19 A2996 RMK AO2 RAE18 SLP148 P0000 T02000194
KTPL 290351Z AUTO 00000KT 10SM -RA FEW039 BKN120 20/19 A3004 RMK AO2 TSE0258 SLP176 P0002 T02000194
KTPL 290346Z AUTO 13007KT 10SM -RA FEW008 BKN120 20/19 A3001 RMK AO2 TSE0258 P0001
KTPL 290304Z AUTO 31006KT 10SM -RA FEW028 SCT060 BKN120 20/19 A2998 RMK AO2 LTG DSNT ALQDS TSE0258 P0001
KTPL 290251Z AUTO 28004KT 10SM VCTS -RA FEW026 BKN050 OVC120 20/19 A2998 RMK AO2 WSHFT 0138 LTG DSNT ALQDS TSE15B21E29B31E36B43 SLP156 P0003 60075 T02000189 50009
KTPL 290249Z AUTO 27004KT 10SM VCTS -RA FEW026 BKN065 OVC120 20/19 A2998 RMK AO2 WSHFT 0138 LTG DSNT ALQDS TSE15B21E29B31E36B43 P0003
KTPL 290242Z AUTO 08004KT 10SM -RA FEW028 BKN055 20/19 A2999 RMK AO2 WSHFT 0138 LTG DSNT ALQDS TSE15B21E29B31E36 P0003
KTPL 290231Z AUTO 00000KT 10SM VCTS -RA FEW027 BKN055 20/18 A3000 RMK AO2 WSHFT 0138 LTG DSNT ALQDS TSE15B21E29B31 P0002
KTPL 290221Z AUTO 34009KT 10SM VCTS -RA FEW036 SCT050 BKN060 20/18 A3001 RMK AO2 WSHFT 0138 LTG DSNT ALQDS TSE15B21 P0002
KTPL 290158Z AUTO 08011KT 10SM VCTS -RA SCT012 BKN049 OVC065 21/19 A2997 RMK AO2 WSHFT 0138 LTG DSNT ALQDS P0001
KTPL 290151Z AUTO 07014KT 10SM VCTS -RA SCT012 BKN049 OVC065 21/20 A2997 RMK AO2 WSHFT 0133 LTG DSNT ALQDS PRESFR SLP153 P0046 T02110200
KTPL 290147Z AUTO 06014KT 10SM -TSRA BKN012 BKN049 OVC070 22/20 A2998 RMK AO2 WSHFT 0133 LTG DSNT ALQDS CIG 005V023 PRESFR P0046
KTPL 290139Z AUTO 04010KT 10SM -TSRA BKN009 BKN019 OVC095 22/22 A3000 RMK AO2 LTG DSNT ALQDS CIG 004V013 P0046
KTPL 290131Z AUTO 01010KT 10SM -TSRA FEW005 BKN049 OVC095 22/22 A3002 RMK AO2 LTG DSNT ALQDS PRESRR P0046
KTPL 290051Z AUTO 28011G19KT 2 1/2SM +TSRA BR OVC012 24/22 A2995 RMK AO2 LTG DSNT ALQDS TSB2355RAB34 PRESRR SLP146 P0026 T02390222
KTPL 290044Z AUTO 15008G15KT 10SM -TSRA OVC014 24/23 A2991 RMK AO2 LTG DSNT ALQDS TSB2355RAB34 PRESRR P0001
KTPL 290029Z AUTO 36009KT 10SM VCTS BKN016 OVC035 24/22 A2987 RMK AO2 LTG DSNT ALQDS TSB2355
KTPL 290001Z AUTO 33008KT 10SM VCTS SCT039 BKN049 BKN080 24/22 A2987 RMK AO2 LTG DSNT ALQDS TSB2355
KTPL 282351Z AUTO 34010KT 10SM BKN039 BKN049 24/22 A2988 RMK AO2 LTG DSNT ALQDS SLP123 60015 T02390222 10322 20239 58000
KTPL 282303Z AUTO 34008KT 10SM SCT029 24/23 A2988 RMK AO2 LTG DSNT ALQDS
KTPL 282251Z AUTO 33011KT 10SM FEW021 BKN029 24/23 A2989 RMK AO2 TSE15B16E44RAE43 SLP125 P0010 T02440228 TSNO
KTPL 282233Z AUTO 34009KT 10SM VCTS -RA FEW021 BKN029 BKN036 25/23 A2989 RMK AO2 LTG DSNT ALQDS TSE15B16 P0010
KTPL 282221Z AUTO 35009KT 10SM -TSRA FEW021 SCT025 BKN030 25/24 A2988 RMK AO2 LTG DSNT NE AND E AND SW TSE15B16 P0009
KTPL 282215Z AUTO 35009KT 10SM RA SCT021 BKN029 OVC035 25/24 A2989 RMK AO2 TSE15 P0009
KTPL 282151Z AUTO 34008KT 10SM TSRA FEW023 BKN033 OVC042 26/24 A2988 RMK AO2 LTG DSNT ALQDS TSB20E48B50RAB22 PRESFR SLP123 P0005 T02560239
KTPL 282126Z AUTO 36010G18KT 10SM -TSRA FEW027 BKN033 OVC043 27/23 A2990 RMK AO2 LTG DSNT NE AND SW AND W TSB20RAB22 P0000
KTPL 282051Z AUTO 18005KT 10SM OVC047 31/24 A2991 RMK AO2 LTG DSNT NE SLP128 T03110239 56007
KTPL 281951Z AUTO 17010KT 10SM SCT034 OVC043 31/24 A2991 RMK AO2 SLP128 T03110239
KTPL 281851Z AUTO 16008KT 10SM FEW050 31/23 A2991 RMK AO2 SLP129 T03110233
KTPL 281751Z AUTO 16012KT 10SM SCT029 OVC042 31/24 A2993 RMK AO2 SLP135 T03060239 10306 20228 51005
KTPL 281702Z AUTO 15011KT 10SM BKN025 30/24 A2992 RMK AO2
KTPL 281651Z AUTO 15009KT 10SM SCT025 30/24 A2993 RMK AO2 SLP134 T03000239
KTPL 281551Z AUTO 14013KT 10SM OVC070 29/24 A2992 RMK AO2 SLP131 T02940239
KTPL 281451Z AUTO 16011KT 10SM BKN065 28/23 A2991 RMK AO2 SLP129 T02780233 51011
KTPL 281351Z AUTO 16009KT 10SM FEW070 26/23 A2991 RMK AO2 SLP128 T02560228
KTPL 281251Z AUTO 15005KT 10SM FEW020 24/23 A2990 RMK AO2 SLP125 T02390228
KTPL 281151Z AUTO 22004KT 10SM CLR 23/22 A2988 RMK AO2 PRESRR SLP118 T02280222 10250 20217 53025
KTPL 281051Z AUTO 16005KT 9SM CLR 22/22 A2984 RMK AO2 SLP106 T02220217
KTPL 280951Z AUTO 17009KT 10SM CLR 23/22 A2982 RMK AO2 SLP096 T02330222
KTPL 280851Z AUTO 17011KT 10SM CLR 24/22 A2980 RMK AO2 SLP093 T02390222 55004
KTPL 280651Z AUTO 17014KT 10SM CLR 24/23 A2978 RMK AO2 LTG DSNT W SLP085 T02440228
KTPL 280551Z AUTO 19017G22KT 10SM CLR 25/23 A2982 RMK AO2 SLP098 T02500228 10328 20250 403330244 58000
KTPL 280451Z AUTO 17017G25KT 10SM CLR 26/23 A2983 RMK AO2 PK WND 17026/0439 SLP102 T02610228
KTPL 280351Z AUTO 16017KT 10SM CLR 27/23 A2984 RMK AO2 SLP104 T02720228
KTPL 280251Z AUTO 16018KT 10SM CLR 28/23 A2982 RMK AO2 SLP097 T02830233 51009
KTPL 280151Z AUTO 15014KT 10SM CLR 29/24 A2981 RMK AO2 SLP096 T02940239
KTPL 280051Z AUTO 15012KT 10SM CLR 32/24 A2980 RMK AO2 SLP090 T03170244
KTPL 272351Z AUTO 15014KT 10SM CLR 32/24 A2979 RMK AO2 SLP087 T03220244 10333 20289 56016


Page loaded:  11:33 UTC  |   04:33 AM Pacific  |   05:33 AM Mountain  |   06:33 AM Central  |   07:33 AM Eastern

 

ADVISORIES

FORECASTS

FORECASTS

OBSERVATIONS

USER TOOLS

ABOUT US